Time,TemperatureF,DewpointF,PressureIn,WindDirection,WindDirectionDegrees,WindSpeedMPH,WindSpeedGustMPH,Humidity,HourlyPrecipIn,Conditions,Clouds,dailyrainin,SoftwareType,DateUTC
2013-05-16 00:03:00,55.8,43.7,29.91,East,90,0.4,1.1,64,0.00,,,0.00,WUHU216HW,2013-05-16 07:03:00,
2013-05-16 00:08:00,55.8,43.7,29.91,East,90,0.4,0.4,64,0.00,,,0.00,WUHU216HW,2013-05-16 07:08:00,
2013-05-16 00:28:00,54.9,44.9,29.92,WSW,248,0.0,0.0,69,0.00,,,0.00,WUHU216HW,2013-05-16 07:28:00,
2013-05-16 00:33:00,54.9,44.9,29.92,WSW,248,0.0,0.0,69,0.00,,,0.00,WUHU216HW,2013-05-16 07:33:00,
2013-05-16 00:58:00,54.0,44.8,29.92,ENE,68,0.0,0.0,71,0.00,,,0.00,WUHU216HW,2013-05-16 07:58:00,
2013-05-16 01:03:00,54.0,44.8,29.92,ENE,68,0.0,0.0,71,0.00,,,0.00,WUHU216HW,2013-05-16 08:03:00,
2013-05-16 01:08:00,54.0,44.8,29.92,ENE,68,0.0,0.0,71,0.00,,,0.00,WUHU216HW,2013-05-16 08:08:00,
2013-05-16 01:28:00,53.6,45.5,29.92,East,90,0.7,0.7,74,0.01,,,0.00,WUHU216HW,2013-05-16 08:28:00,
2013-05-16 07:58:00,52.6,49.1,29.94,NE,45,1.1,1.1,88,0.00,,,0.01,WUHU216HW,2013-05-16 14:58:00,
2013-05-16 08:03:00,52.7,49.2,29.94,NE,45,0.0,1.1,88,0.00,,,0.09,WUHU216HW,2013-05-16 15:03:00,
2013-05-16 08:08:00,52.7,49.2,29.94,NE,45,0.0,0.9,88,0.00,,,0.09,WUHU216HW,2013-05-16 15:08:00,
2013-05-16 08:32:00,53.3,48.9,29.94,NE,45,0.9,0.9,85,0.00,,,0.09,WUHU216HW,2013-05-16 15:32:00,
2013-05-16 08:37:00,53.3,48.9,29.94,NE,45,0.9,0.9,85,0.00,,,0.09,WUHU216HW,2013-05-16 15:37:00,
2013-05-16 08:58:00,53.8,49.1,29.94,NNE,23,1.3,1.3,84,0.00,,,0.09,WUHU216HW,2013-05-16 15:58:00,
2013-05-16 09:03:00,53.8,49.1,29.94,NNE,23,1.3,1.3,84,0.00,,,0.09,WUHU216HW,2013-05-16 16:03:00,
2013-05-16 09:28:00,54.5,49.1,29.94,ESE,113,0.0,0.0,82,0.00,,,0.09,WUHU216HW,2013-05-16 16:28:00,
2013-05-16 09:33:00,54.5,49.1,29.94,ESE,113,0.0,0.0,82,0.00,,,0.09,WUHU216HW,2013-05-16 16:33:00,
2013-05-16 09:58:00,55.8,50.1,29.94,ENE,68,0.7,0.7,81,0.00,,,0.09,WUHU216HW,2013-05-16 16:58:00,
2013-05-16 10:03:00,55.8,50.1,29.94,ENE,68,0.7,0.7,81,0.00,,,0.09,WUHU216HW,2013-05-16 17:03:00,
2013-05-16 10:28:00,57.1,49.9,29.94,WSW,248,0.2,0.2,77,0.00,,,0.09,WUHU216HW,2013-05-16 17:28:00,
2013-05-16 10:33:00,57.1,49.9,29.94,WSW,248,0.2,0.2,77,0.00,,,0.09,WUHU216HW,2013-05-16 17:33:00,
2013-05-16 10:58:00,58.0,49.7,29.94,WNW,293,0.0,0.0,74,0.00,,,0.09,WUHU216HW,2013-05-16 17:58:00,
2013-05-16 11:03:00,58.0,49.7,29.94,WNW,293,0.0,0.0,74,0.00,,,0.09,WUHU216HW,2013-05-16 18:03:00,
2013-05-16 11:28:00,60.1,51.1,29.93,ESE,113,0.7,0.7,72,0.00,,,0.09,WUHU216HW,2013-05-16 18:28:00,
2013-05-16 11:33:00,60.1,51.1,29.93,ESE,113,0.7,0.7,72,0.00,,,0.09,WUHU216HW,2013-05-16 18:33:00,
2013-05-16 11:58:00,61.2,49.8,29.93,NNE,23,1.8,1.8,66,0.01,,,0.09,WUHU216HW,2013-05-16 18:58:00,
2013-05-16 12:03:00,61.2,49.8,29.93,NNE,23,1.8,1.8,66,0.01,,,0.09,WUHU216HW,2013-05-16 19:03:00,
2013-05-16 12:28:00,62.5,48.9,29.92,South,180,2.9,2.9,61,0.01,,,0.10,WUHU216HW,2013-05-16 19:28:00,
2013-05-16 12:33:00,62.5,48.9,29.92,South,180,2.9,2.9,61,0.01,,,0.10,WUHU216HW,2013-05-16 19:33:00,
2013-05-16 12:58:00,60.8,48.3,29.92,NNE,23,1.6,1.6,63,0.00,,,0.10,WUHU216HW,2013-05-16 19:58:00,
2013-05-16 13:03:00,60.8,48.3,29.92,NNE,23,1.6,1.6,63,0.00,,,0.10,WUHU216HW,2013-05-16 20:03:00,
2013-05-16 13:28:00,61.4,48.3,29.91,NNE,23,4.3,4.3,62,0.00,,,0.10,WUHU216HW,2013-05-16 20:28:00,
2013-05-16 13:33:00,61.4,48.3,29.91,NNE,23,4.3,4.3,62,0.00,,,0.10,WUHU216HW,2013-05-16 20:33:00,
2013-05-16 13:58:00,65.3,49.7,29.90,SW,225,0.7,0.7,57,0.00,,,0.10,WUHU216HW,2013-05-16 20:58:00,
2013-05-16 14:03:00,65.2,49.5,29.90,SSW,203,2.0,2.0,57,0.00,,,0.10,WUHU216HW,2013-05-16 21:03:00,
2013-05-16 14:08:00,65.2,49.5,29.90,SSW,203,2.0,2.0,57,0.00,,,0.10,WUHU216HW,2013-05-16 21:08:00,
2013-05-16 14:28:00,67.1,48.4,29.89,East,90,3.4,3.4,51,0.00,,,0.10,WUHU216HW,2013-05-16 21:28:00,
2013-05-16 14:33:00,67.1,48.4,29.89,East,90,3.4,3.4,51,0.00,,,0.10,WUHU216HW,2013-05-16 21:33:00,
2013-05-16 14:58:00,64.8,47.2,29.89,NNE,23,1.3,1.3,53,0.00,,,0.10,WUHU216HW,2013-05-16 21:58:00,
2013-05-16 15:03:00,64.6,47.0,29.89,North,0,1.1,1.3,53,0.00,,,0.10,WUHU216HW,2013-05-16 22:03:00,
2013-05-16 15:08:00,64.6,47.0,29.89,North,0,1.1,1.1,53,0.00,,,0.10,WUHU216HW,2013-05-16 22:08:00,
2013-05-16 15:28:00,63.7,47.6,29.88,NNE,23,1.1,1.1,56,0.00,,,0.10,WUHU216HW,2013-05-16 22:28:00,
2013-05-16 15:33:00,63.7,47.6,29.88,NNE,23,1.1,1.1,56,0.00,,,0.10,WUHU216HW,2013-05-16 22:33:00,
2013-05-16 15:58:00,63.4,47.4,29.88,SSW,203,0.9,0.9,56,0.00,,,0.10,WUHU216HW,2013-05-16 22:58:00,
2013-05-16 16:03:00,63.2,47.2,29.88,SSW,203,0.9,0.9,56,0.00,,,0.10,WUHU216HW,2013-05-16 23:03:00,
2013-05-16 16:08:00,63.2,47.2,29.88,SSW,203,0.9,0.9,56,0.00,,,0.10,WUHU216HW,2013-05-16 23:08:00,
2013-05-16 16:28:00,63.0,47.4,29.87,NNE,23,2.5,2.5,57,0.00,,,0.10,WUHU216HW,2013-05-16 23:28:00,
2013-05-16 16:33:00,63.0,47.4,29.87,NNE,23,2.5,2.5,57,0.00,,,0.10,WUHU216HW,2013-05-16 23:33:00,
2013-05-16 16:58:00,62.5,46.5,29.86,NE,45,0.0,0.0,56,0.00,,,0.10,WUHU216HW,2013-05-16 23:58:00,
2013-05-16 17:03:00,62.5,46.5,29.86,NE,45,0.0,0.0,56,0.00,,,0.10,WUHU216HW,2013-05-17 00:03:00,
2013-05-16 17:28:00,63.7,46.6,29.86,NNW,338,0.0,0.0,54,0.00,,,0.10,WUHU216HW,2013-05-17 00:28:00,
2013-05-16 17:33:00,63.7,46.6,29.86,NNW,338,0.0,0.0,54,0.00,,,0.10,WUHU216HW,2013-05-17 00:33:00,
2013-05-16 17:58:00,63.4,46.8,29.85,West,270,0.7,0.7,55,0.00,,,0.10,WUHU216HW,2013-05-17 00:58:00,
2013-05-16 18:03:00,63.4,46.8,29.85,West,270,0.7,0.7,55,0.00,,,0.10,WUHU216HW,2013-05-17 01:03:00,
2013-05-16 18:28:00,63.4,46.8,29.85,ESE,113,0.0,0.0,55,0.00,,,0.10,WUHU216HW,2013-05-17 01:28:00,
2013-05-16 18:33:00,63.4,46.8,29.85,ESE,113,0.0,0.0,55,0.00,,,0.10,WUHU216HW,2013-05-17 01:33:00,
2013-05-16 18:58:00,62.3,47.4,29.85,NE,45,0.0,0.0,58,0.00,,,0.10,WUHU216HW,2013-05-17 01:58:00,
2013-05-16 19:03:00,62.3,47.4,29.85,NE,45,0.0,0.0,58,0.00,,,0.10,WUHU216HW,2013-05-17 02:03:00,
2013-05-16 19:28:00,61.4,47.9,29.85,NE,45,1.1,1.1,61,0.00,,,0.10,WUHU216HW,2013-05-17 02:28:00,
2013-05-16 19:33:00,61.4,47.9,29.85,NE,45,1.1,1.1,61,0.00,,,0.10,WUHU216HW,2013-05-17 02:33:00,
2013-05-16 19:58:00,59.8,47.5,29.86,NE,45,0.0,0.0,64,0.00,,,0.10,WUHU216HW,2013-05-17 02:58:00,
2013-05-16 20:03:00,59.8,47.5,29.86,NE,45,0.0,0.0,64,0.00,,,0.10,WUHU216HW,2013-05-17 03:03:00,
2013-05-16 20:28:00,57.6,47.5,29.86,NNE,23,0.0,0.0,69,0.00,,,0.10,WUHU216HW,2013-05-17 03:28:00,
2013-05-16 20:33:00,57.6,47.5,29.86,NNE,23,0.0,0.0,69,0.00,,,0.10,WUHU216HW,2013-05-17 03:33:00,
2013-05-16 20:58:00,55.4,46.9,29.87,NE,45,0.4,0.4,73,0.00,,,0.10,WUHU216HW,2013-05-17 03:58:00,
2013-05-16 21:01:00,55.4,46.9,29.87,NE,45,0.4,0.4,73,0.00,,,0.10,WUHU216HW,2013-05-17 04:01:00,
2013-05-16 21:06:00,55.4,46.9,29.87,NE,45,0.4,0.4,73,0.00,,,0.10,WUHU216HW,2013-05-17 04:06:00,
2013-05-16 21:28:00,54.0,46.3,29.88,NE,45,0.0,0.0,75,0.00,,,0.10,WUHU216HW,2013-05-17 04:28:00,
2013-05-16 21:33:00,54.0,46.3,29.88,NE,45,0.0,0.0,75,0.00,,,0.10,WUHU216HW,2013-05-17 04:33:00,
2013-05-16 21:58:00,52.6,46.3,29.88,NNE,23,0.0,0.0,79,0.00,,,0.10,WUHU216HW,2013-05-17 04:58:00,
2013-05-16 22:03:00,52.6,46.3,29.88,NNE,23,0.0,0.0,79,0.00,,,0.10,WUHU216HW,2013-05-17 05:03:00,
2013-05-16 22:28:00,51.5,44.8,29.88,NNE,23,0.0,0.0,78,0.00,,,0.10,WUHU216HW,2013-05-17 05:28:00,
2013-05-16 22:33:00,51.5,44.8,29.88,NNE,23,0.0,0.0,78,0.00,,,0.10,WUHU216HW,2013-05-17 05:33:00,
2013-05-16 22:58:00,50.4,44.5,29.88,NE,45,0.0,0.0,80,0.07,,,0.10,WUHU216HW,2013-05-17 05:58:00,
2013-05-16 23:03:00,50.4,44.5,29.88,NE,45,0.0,0.0,80,0.07,,,0.10,WUHU216HW,2013-05-17 06:03:00,
2013-05-16 23:28:00,49.3,43.4,29.88,NNE,23,0.9,0.9,80,0.07,,,0.17,WUHU216HW,2013-05-17 06:28:00,
2013-05-16 23:33:00,49.3,43.4,29.88,NNE,23,0.9,0.9,80,0.07,,,0.17,WUHU216HW,2013-05-17 06:33:00,
2013-05-16 23:58:00,48.2,42.7,29.88,NNE,23,0.0,0.0,81,0.00,,,0.00,WUHU216HW,2013-05-17 06:58:00,